sensor_id;sensor_type;location;lat;lon;timestamp;P1;durP1;ratioP1;P2;durP2;ratioP2
44143;SDS011;68165;51.920;4.492;2023-03-03T00:02:05;12.07;;;6.05;;
44143;SDS011;68165;51.920;4.492;2023-03-03T00:04:30;16.80;;;6.95;;
44143;SDS011;68165;51.920;4.492;2023-03-03T00:06:55;12.43;;;6.78;;
44143;SDS011;68165;51.920;4.492;2023-03-03T00:09:21;15.57;;;7.05;;
44143;SDS011;68165;51.920;4.492;2023-03-03T00:11:47;16.63;;;6.68;;
44143;SDS011;68165;51.920;4.492;2023-03-03T00:14:23;16.60;;;6.60;;
44143;SDS011;68165;51.920;4.492;2023-03-03T00:16:53;16.45;;;7.07;;
44143;SDS011;68165;51.920;4.492;2023-03-03T00:19:20;14.88;;;7.05;;
44143;SDS011;68165;51.920;4.492;2023-03-03T00:21:46;18.70;;;7.47;;
44143;SDS011;68165;51.920;4.492;2023-03-03T00:26:39;16.83;;;7.22;;
44143;SDS011;68165;51.920;4.492;2023-03-03T00:34:38;18.42;;;7.03;;
44143;SDS011;68165;51.920;4.492;2023-03-03T00:37:10;16.38;;;6.57;;
44143;SDS011;68165;51.920;4.492;2023-03-03T00:39:47;16.23;;;6.93;;
44143;SDS011;68165;51.920;4.492;2023-03-03T00:42:13;19.13;;;7.20;;
44143;SDS011;68165;51.920;4.492;2023-03-03T00:44:56;15.05;;;7.22;;
44143;SDS011;68165;51.920;4.492;2023-03-03T00:47:29;15.35;;;6.47;;
44143;SDS011;68165;51.920;4.492;2023-03-03T00:52:32;17.23;;;7.07;;
44143;SDS011;68165;51.920;4.492;2023-03-03T00:55:00;15.63;;;7.82;;
44143;SDS011;68165;51.920;4.492;2023-03-03T00:57:28;21.05;;;7.72;;
44143;SDS011;68165;51.920;4.492;2023-03-03T00:59:53;18.25;;;8.13;;
44143;SDS011;68165;51.920;4.492;2023-03-03T01:02:18;16.88;;;8.05;;
44143;SDS011;68165;51.920;4.492;2023-03-03T01:04:45;19.65;;;8.35;;
44143;SDS011;68165;51.920;4.492;2023-03-03T01:07:14;21.42;;;8.93;;
44143;SDS011;68165;51.920;4.492;2023-03-03T01:09:40;19.70;;;8.95;;
44143;SDS011;68165;51.920;4.492;2023-03-03T01:12:05;19.83;;;8.65;;
44143;SDS011;68165;51.920;4.492;2023-03-03T01:14:30;17.75;;;8.07;;
44143;SDS011;68165;51.920;4.492;2023-03-03T01:16:58;19.10;;;8.48;;
44143;SDS011;68165;51.920;4.492;2023-03-03T01:19:23;21.98;;;7.85;;
44143;SDS011;68165;51.920;4.492;2023-03-03T01:21:49;20.30;;;8.95;;
44143;SDS011;68165;51.920;4.492;2023-03-03T01:24:14;20.95;;;9.45;;
44143;SDS011;68165;51.920;4.492;2023-03-03T01:26:39;19.48;;;8.93;;
44143;SDS011;68165;51.920;4.492;2023-03-03T01:29:05;17.48;;;8.90;;
44143;SDS011;68165;51.920;4.492;2023-03-03T01:31:30;23.77;;;9.15;;
44143;SDS011;68165;51.920;4.492;2023-03-03T01:33:56;20.45;;;8.18;;
44143;SDS011;68165;51.920;4.492;2023-03-03T01:36:22;21.67;;;8.75;;
44143;SDS011;68165;51.920;4.492;2023-03-03T01:38:49;21.08;;;8.20;;
44143;SDS011;68165;51.920;4.492;2023-03-03T01:41:15;25.35;;;9.60;;
44143;SDS011;68165;51.920;4.492;2023-03-03T01:43:48;15.82;;;8.30;;
44143;SDS011;68165;51.920;4.492;2023-03-03T01:48:49;18.77;;;8.13;;
44143;SDS011;68165;51.920;4.492;2023-03-03T01:51:24;20.35;;;8.98;;
44143;SDS011;68165;51.920;4.492;2023-03-03T01:54:03;18.73;;;7.57;;
44143;SDS011;68165;51.920;4.492;2023-03-03T01:59:13;18.35;;;7.50;;
44143;SDS011;68165;51.920;4.492;2023-03-03T02:01:44;16.67;;;8.20;;
44143;SDS011;68165;51.920;4.492;2023-03-03T02:04:11;19.45;;;7.85;;
44143;SDS011;68165;51.920;4.492;2023-03-03T02:06:38;14.77;;;7.25;;
44143;SDS011;68165;51.920;4.492;2023-03-03T02:09:31;19.65;;;8.93;;
44143;SDS011;68165;51.920;4.492;2023-03-03T02:12:02;27.30;;;8.07;;
44143;SDS011;68165;51.920;4.492;2023-03-03T02:14:33;20.92;;;7.45;;
44143;SDS011;68165;51.920;4.492;2023-03-03T02:16:59;16.52;;;7.07;;
44143;SDS011;68165;51.920;4.492;2023-03-03T02:19:32;15.80;;;6.85;;
44143;SDS011;68165;51.920;4.492;2023-03-03T02:22:04;14.45;;;6.57;;
44143;SDS011;68165;51.920;4.492;2023-03-03T02:24:38;17.77;;;7.50;;
44143;SDS011;68165;51.920;4.492;2023-03-03T02:27:09;17.95;;;7.28;;
44143;SDS011;68165;51.920;4.492;2023-03-03T02:29:36;22.00;;;6.78;;
44143;SDS011;68165;51.920;4.492;2023-03-03T02:32:01;17.15;;;7.43;;
44143;SDS011;68165;51.920;4.492;2023-03-03T02:34:27;17.55;;;7.38;;
44143;SDS011;68165;51.920;4.492;2023-03-03T02:36:52;20.88;;;7.00;;
44143;SDS011;68165;51.920;4.492;2023-03-03T02:44:29;14.23;;;5.32;;
44143;SDS011;68165;51.920;4.492;2023-03-03T02:46:56;12.48;;;5.45;;
44143;SDS011;68165;51.920;4.492;2023-03-03T02:49:35;14.77;;;6.38;;
44143;SDS011;68165;51.920;4.492;2023-03-03T02:52:02;13.52;;;5.68;;
44143;SDS011;68165;51.920;4.492;2023-03-03T02:54:29;14.65;;;5.38;;
44143;SDS011;68165;51.920;4.492;2023-03-03T02:56:55;15.82;;;6.50;;
44143;SDS011;68165;51.920;4.492;2023-03-03T02:59:21;12.13;;;5.93;;
44143;SDS011;68165;51.920;4.492;2023-03-03T03:01:47;10.05;;;4.82;;
44143;SDS011;68165;51.920;4.492;2023-03-03T03:04:17;11.23;;;5.35;;
44143;SDS011;68165;51.920;4.492;2023-03-03T03:06:44;10.80;;;5.07;;
44143;SDS011;68165;51.920;4.492;2023-03-03T03:09:11;11.43;;;5.43;;
44143;SDS011;68165;51.920;4.492;2023-03-03T03:11:38;14.10;;;5.68;;
44143;SDS011;68165;51.920;4.492;2023-03-03T03:14:04;11.35;;;5.15;;
44143;SDS011;68165;51.920;4.492;2023-03-03T03:16:31;14.40;;;4.75;;
44143;SDS011;68165;51.920;4.492;2023-03-03T03:18:57;11.30;;;5.22;;
44143;SDS011;68165;51.920;4.492;2023-03-03T03:21:24;12.10;;;4.32;;
44143;SDS011;68165;51.920;4.492;2023-03-03T03:23:50;16.00;;;4.68;;
44143;SDS011;68165;51.920;4.492;2023-03-03T03:26:15;10.48;;;5.05;;
44143;SDS011;68165;51.920;4.492;2023-03-03T03:28:41;15.20;;;4.82;;
44143;SDS011;68165;51.920;4.492;2023-03-03T03:31:07;13.55;;;5.13;;
44143;SDS011;68165;51.920;4.492;2023-03-03T03:33:33;14.38;;;6.45;;
44143;SDS011;68165;51.920;4.492;2023-03-03T03:35:59;16.38;;;6.32;;
44143;SDS011;68165;51.920;4.492;2023-03-03T03:38:24;13.63;;;5.65;;
44143;SDS011;68165;51.920;4.492;2023-03-03T03:40:51;11.70;;;5.50;;
44143;SDS011;68165;51.920;4.492;2023-03-03T03:43:17;13.73;;;6.80;;
44143;SDS011;68165;51.920;4.492;2023-03-03T03:45:43;16.40;;;6.43;;
44143;SDS011;68165;51.920;4.492;2023-03-03T03:48:08;17.25;;;6.35;;
44143;SDS011;68165;51.920;4.492;2023-03-03T03:50:34;15.73;;;6.35;;
44143;SDS011;68165;51.920;4.492;2023-03-03T03:53:00;14.85;;;6.47;;
44143;SDS011;68165;51.920;4.492;2023-03-03T03:55:26;16.08;;;7.00;;
44143;SDS011;68165;51.920;4.492;2023-03-03T03:57:51;13.02;;;6.13;;
44143;SDS011;68165;51.920;4.492;2023-03-03T04:00:17;17.08;;;6.97;;
44143;SDS011;68165;51.920;4.492;2023-03-03T04:02:42;18.23;;;7.50;;
44143;SDS011;68165;51.920;4.492;2023-03-03T04:05:08;16.63;;;6.40;;
44143;SDS011;68165;51.920;4.492;2023-03-03T04:07:33;17.30;;;7.25;;
44143;SDS011;68165;51.920;4.492;2023-03-03T04:09:59;16.83;;;6.50;;
44143;SDS011;68165;51.920;4.492;2023-03-03T04:12:24;14.48;;;6.55;;
44143;SDS011;68165;51.920;4.492;2023-03-03T04:14:50;16.63;;;7.10;;
44143;SDS011;68165;51.920;4.492;2023-03-03T04:17:19;19.23;;;7.85;;
44143;SDS011;68165;51.920;4.492;2023-03-03T04:19:46;20.42;;;7.43;;
44143;SDS011;68165;51.920;4.492;2023-03-03T04:22:12;16.33;;;7.22;;
44143;SDS011;68165;51.920;4.492;2023-03-03T04:24:39;19.00;;;8.55;;
44143;SDS011;68165;51.920;4.492;2023-03-03T04:27:05;21.35;;;8.30;;
44143;SDS011;68165;51.920;4.492;2023-03-03T04:29:33;19.48;;;8.00;;
44143;SDS011;68165;51.920;4.492;2023-03-03T04:31:59;15.35;;;7.35;;
44143;SDS011;68165;51.920;4.492;2023-03-03T04:34:25;22.20;;;8.88;;
44143;SDS011;68165;51.920;4.492;2023-03-03T04:36:51;22.30;;;8.45;;
44143;SDS011;68165;51.920;4.492;2023-03-03T04:39:16;16.02;;;7.78;;
44143;SDS011;68165;51.920;4.492;2023-03-03T04:41:41;19.05;;;8.45;;
44143;SDS011;68165;51.920;4.492;2023-03-03T04:44:07;19.30;;;7.63;;
44143;SDS011;68165;51.920;4.492;2023-03-03T04:46:33;18.08;;;8.18;;
44143;SDS011;68165;51.920;4.492;2023-03-03T04:48:58;18.50;;;8.55;;
44143;SDS011;68165;51.920;4.492;2023-03-03T04:51:23;22.52;;;8.10;;
44143;SDS011;68165;51.920;4.492;2023-03-03T04:53:49;18.95;;;8.68;;
44143;SDS011;68165;51.920;4.492;2023-03-03T04:56:14;15.60;;;7.22;;
44143;SDS011;68165;51.920;4.492;2023-03-03T04:58:40;18.98;;;8.77;;
44143;SDS011;68165;51.920;4.492;2023-03-03T05:01:05;22.50;;;9.52;;
44143;SDS011;68165;51.920;4.492;2023-03-03T05:03:30;22.88;;;9.30;;
44143;SDS011;68165;51.920;4.492;2023-03-03T05:05:56;23.02;;;9.07;;
44143;SDS011;68165;51.920;4.492;2023-03-03T05:08:22;18.67;;;8.25;;
44143;SDS011;68165;51.920;4.492;2023-03-03T05:10:51;24.08;;;8.65;;
44143;SDS011;68165;51.920;4.492;2023-03-03T05:13:18;21.52;;;9.85;;
44143;SDS011;68165;51.920;4.492;2023-03-03T05:15:47;24.58;;;9.00;;
44143;SDS011;68165;51.920;4.492;2023-03-03T05:18:13;20.10;;;8.63;;
44143;SDS011;68165;51.920;4.492;2023-03-03T05:20:39;19.23;;;8.35;;
44143;SDS011;68165;51.920;4.492;2023-03-03T05:23:05;20.52;;;9.68;;
44143;SDS011;68165;51.920;4.492;2023-03-03T05:25:31;24.52;;;9.80;;
44143;SDS011;68165;51.920;4.492;2023-03-03T05:27:56;21.88;;;9.13;;
44143;SDS011;68165;51.920;4.492;2023-03-03T05:30:22;22.13;;;8.75;;
44143;SDS011;68165;51.920;4.492;2023-03-03T05:32:47;22.80;;;9.43;;
44143;SDS011;68165;51.920;4.492;2023-03-03T05:35:13;17.98;;;8.77;;
44143;SDS011;68165;51.920;4.492;2023-03-03T05:37:38;22.02;;;9.73;;
44143;SDS011;68165;51.920;4.492;2023-03-03T05:40:06;17.00;;;7.55;;
44143;SDS011;68165;51.920;4.492;2023-03-03T05:42:32;19.52;;;8.73;;
44143;SDS011;68165;51.920;4.492;2023-03-03T05:44:58;18.60;;;7.60;;
44143;SDS011;68165;51.920;4.492;2023-03-03T05:47:23;17.85;;;7.47;;
44143;SDS011;68165;51.920;4.492;2023-03-03T05:49:48;16.67;;;7.28;;
44143;SDS011;68165;51.920;4.492;2023-03-03T05:52:14;14.98;;;7.47;;
44143;SDS011;68165;51.920;4.492;2023-03-03T05:54:39;17.90;;;7.70;;
44143;SDS011;68165;51.920;4.492;2023-03-03T05:57:04;20.08;;;7.90;;
44143;SDS011;68165;51.920;4.492;2023-03-03T05:59:30;18.98;;;8.45;;
44143;SDS011;68165;51.920;4.492;2023-03-03T06:01:55;19.08;;;8.38;;
44143;SDS011;68165;51.920;4.492;2023-03-03T06:04:21;27.02;;;9.07;;
44143;SDS011;68165;51.920;4.492;2023-03-03T06:06:46;20.60;;;8.90;;
44143;SDS011;68165;51.920;4.492;2023-03-03T06:09:11;21.58;;;9.02;;
44143;SDS011;68165;51.920;4.492;2023-03-03T06:11:37;21.80;;;8.52;;
44143;SDS011;68165;51.920;4.492;2023-03-03T06:14:02;25.27;;;9.32;;
44143;SDS011;68165;51.920;4.492;2023-03-03T06:16:27;22.00;;;9.38;;
44143;SDS011;68165;51.920;4.492;2023-03-03T06:18:53;24.02;;;9.15;;
44143;SDS011;68165;51.920;4.492;2023-03-03T06:21:19;17.45;;;7.78;;
44143;SDS011;68165;51.920;4.492;2023-03-03T06:23:45;23.10;;;9.77;;
44143;SDS011;68165;51.920;4.492;2023-03-03T06:26:10;19.60;;;9.13;;
44143;SDS011;68165;51.920;4.492;2023-03-03T06:28:35;17.25;;;8.60;;
44143;SDS011;68165;51.920;4.492;2023-03-03T06:31:01;20.05;;;9.30;;
44143;SDS011;68165;51.920;4.492;2023-03-03T06:33:26;17.42;;;7.68;;
44143;SDS011;68165;51.920;4.492;2023-03-03T06:35:52;17.58;;;8.73;;
44143;SDS011;68165;51.920;4.492;2023-03-03T06:38:18;23.45;;;9.65;;
44143;SDS011;68165;51.920;4.492;2023-03-03T06:40:44;19.52;;;8.95;;
44143;SDS011;68165;51.920;4.492;2023-03-03T06:43:10;19.83;;;9.50;;
44143;SDS011;68165;51.920;4.492;2023-03-03T06:45:36;24.67;;;9.57;;
44143;SDS011;68165;51.920;4.492;2023-03-03T06:48:01;25.80;;;9.60;;
44143;SDS011;68165;51.920;4.492;2023-03-03T06:50:27;23.75;;;9.80;;
44143;SDS011;68165;51.920;4.492;2023-03-03T06:53:12;23.23;;;10.40;;
44143;SDS011;68165;51.920;4.492;2023-03-03T06:55:39;22.60;;;9.65;;
44143;SDS011;68165;51.920;4.492;2023-03-03T06:58:18;25.83;;;9.88;;
44143;SDS011;68165;51.920;4.492;2023-03-03T07:03:25;25.15;;;9.90;;
44143;SDS011;68165;51.920;4.492;2023-03-03T07:05:56;19.73;;;9.10;;
44143;SDS011;68165;51.920;4.492;2023-03-03T07:08:22;20.35;;;8.65;;
44143;SDS011;68165;51.920;4.492;2023-03-03T07:10:49;17.58;;;8.30;;
44143;SDS011;68165;51.920;4.492;2023-03-03T07:15:51;18.27;;;8.80;;
44143;SDS011;68165;51.920;4.492;2023-03-03T07:18:34;19.20;;;8.13;;
44143;SDS011;68165;51.920;4.492;2023-03-03T07:21:17;19.40;;;8.27;;
44143;SDS011;68165;51.920;4.492;2023-03-03T07:23:48;18.98;;;8.13;;
44143;SDS011;68165;51.920;4.492;2023-03-03T07:26:25;19.13;;;8.27;;
44143;SDS011;68165;51.920;4.492;2023-03-03T07:29:00;21.02;;;7.57;;
44143;SDS011;68165;51.920;4.492;2023-03-03T07:31:39;21.92;;;8.23;;
44143;SDS011;68165;51.920;4.492;2023-03-03T07:34:16;22.13;;;8.80;;
44143;SDS011;68165;51.920;4.492;2023-03-03T07:36:46;17.40;;;8.52;;
44143;SDS011;68165;51.920;4.492;2023-03-03T07:39:24;17.15;;;8.02;;
44143;SDS011;68165;51.920;4.492;2023-03-03T07:41:57;15.55;;;6.95;;
44143;SDS011;68165;51.920;4.492;2023-03-03T07:44:34;16.73;;;7.20;;
44143;SDS011;68165;51.920;4.492;2023-03-03T07:47:11;18.17;;;8.13;;
44143;SDS011;68165;51.920;4.492;2023-03-03T07:49:43;17.67;;;7.72;;
44143;SDS011;68165;51.920;4.492;2023-03-03T07:52:48;19.38;;;8.43;;
44143;SDS011;68165;51.920;4.492;2023-03-03T07:55:19;15.20;;;7.70;;
44143;SDS011;68165;51.920;4.492;2023-03-03T07:57:53;14.13;;;6.88;;
44143;SDS011;68165;51.920;4.492;2023-03-03T08:03:02;14.88;;;6.38;;
44143;SDS011;68165;51.920;4.492;2023-03-03T08:06:03;14.27;;;6.38;;
44143;SDS011;68165;51.920;4.492;2023-03-03T08:08:25;13.23;;;6.57;;
44143;SDS011;68165;51.920;4.492;2023-03-03T08:11:00;14.65;;;6.50;;
44143;SDS011;68165;51.920;4.492;2023-03-03T08:21:24;13.95;;;6.85;;
44143;SDS011;68165;51.920;4.492;2023-03-03T08:23:50;15.25;;;7.20;;
44143;SDS011;68165;51.920;4.492;2023-03-03T08:26:18;15.63;;;6.60;;
44143;SDS011;68165;51.920;4.492;2023-03-03T08:28:48;13.73;;;7.25;;
44143;SDS011;68165;51.920;4.492;2023-03-03T08:31:15;14.32;;;6.20;;
44143;SDS011;68165;51.920;4.492;2023-03-03T08:33:42;11.57;;;5.57;;
44143;SDS011;68165;51.920;4.492;2023-03-03T08:36:08;14.18;;;6.50;;
44143;SDS011;68165;51.920;4.492;2023-03-03T08:38:34;13.55;;;6.50;;
44143;SDS011;68165;51.920;4.492;2023-03-03T08:41:00;15.18;;;7.10;;
44143;SDS011;68165;51.920;4.492;2023-03-03T08:43:25;18.42;;;7.63;;
44143;SDS011;68165;51.920;4.492;2023-03-03T08:45:52;19.67;;;7.93;;
44143;SDS011;68165;51.920;4.492;2023-03-03T08:48:22;19.48;;;7.95;;
44143;SDS011;68165;51.920;4.492;2023-03-03T08:50:47;20.95;;;7.63;;
44143;SDS011;68165;51.920;4.492;2023-03-03T08:53:13;17.70;;;7.53;;
44143;SDS011;68165;51.920;4.492;2023-03-03T08:55:39;18.00;;;7.32;;
44143;SDS011;68165;51.920;4.492;2023-03-03T08:58:05;12.55;;;6.25;;
44143;SDS011;68165;51.920;4.492;2023-03-03T09:00:31;19.95;;;7.13;;
44143;SDS011;68165;51.920;4.492;2023-03-03T09:02:56;15.25;;;6.88;;
44143;SDS011;68165;51.920;4.492;2023-03-03T09:05:22;14.88;;;6.47;;
44143;SDS011;68165;51.920;4.492;2023-03-03T09:07:49;14.85;;;6.20;;
44143;SDS011;68165;51.920;4.492;2023-03-03T09:10:19;12.20;;;5.45;;
44143;SDS011;68165;51.920;4.492;2023-03-03T09:12:51;12.60;;;5.75;;
44143;SDS011;68165;51.920;4.492;2023-03-03T09:17:43;10.55;;;5.53;;
44143;SDS011;68165;51.920;4.492;2023-03-03T09:25:56;10.85;;;4.32;;
44143;SDS011;68165;51.920;4.492;2023-03-03T09:28:30;11.60;;;4.45;;
44143;SDS011;68165;51.920;4.492;2023-03-03T09:31:00;9.52;;;4.18;;
44143;SDS011;68165;51.920;4.492;2023-03-03T09:38:54;9.20;;;4.18;;
44143;SDS011;68165;51.920;4.492;2023-03-03T09:49:37;11.27;;;4.40;;
44143;SDS011;68165;51.920;4.492;2023-03-03T09:55:03;7.78;;;3.70;;
44143;SDS011;68165;51.920;4.492;2023-03-03T09:57:58;14.55;;;3.70;;
44143;SDS011;68165;51.920;4.492;2023-03-03T10:14:30;8.75;;;3.72;;
44143;SDS011;68165;51.920;4.492;2023-03-03T10:25:22;7.38;;;3.03;;
44143;SDS011;68165;51.920;4.492;2023-03-03T10:27:59;7.05;;;3.15;;
44143;SDS011;68165;51.920;4.492;2023-03-03T10:49:59;6.25;;;2.60;;
44143;SDS011;68165;51.920;4.492;2023-03-03T11:00:34;8.63;;;2.95;;
44143;SDS011;68165;51.920;4.492;2023-03-03T11:10:47;7.90;;;2.55;;
44143;SDS011;68165;51.920;4.492;2023-03-03T11:16:33;5.25;;;2.75;;
44143;SDS011;68165;51.920;4.492;2023-03-03T11:21:50;6.10;;;1.98;;
44143;SDS011;68165;51.920;4.492;2023-03-03T11:41:21;5.10;;;1.33;;
44143;SDS011;68165;51.920;4.492;2023-03-03T11:49:52;4.47;;;1.27;;
44143;SDS011;68165;51.920;4.492;2023-03-03T11:55:29;4.22;;;1.45;;
44143;SDS011;68165;51.920;4.492;2023-03-03T12:14:11;4.40;;;1.63;;
44143;SDS011;68165;51.920;4.492;2023-03-03T12:17:00;6.15;;;0.98;;
44143;SDS011;68165;51.920;4.492;2023-03-03T12:27:49;3.88;;;1.30;;
44143;SDS011;68165;51.920;4.492;2023-03-03T12:30:23;4.95;;;1.58;;
44143;SDS011;68165;51.920;4.492;2023-03-03T12:33:01;4.20;;;1.55;;
44143;SDS011;68165;51.920;4.492;2023-03-03T12:38:31;5.00;;;1.42;;
44143;SDS011;68165;51.920;4.492;2023-03-03T12:47:15;4.95;;;1.60;;
44143;SDS011;68165;51.920;4.492;2023-03-03T12:52:49;4.95;;;1.30;;
44143;SDS011;68165;51.920;4.492;2023-03-03T12:58:34;4.60;;;1.20;;
44143;SDS011;68165;51.920;4.492;2023-03-03T13:07:14;4.75;;;1.20;;
44143;SDS011;68165;51.920;4.492;2023-03-03T13:10:02;4.95;;;1.02;;
44143;SDS011;68165;51.920;4.492;2023-03-03T13:12:51;4.43;;;1.08;;
44143;SDS011;68165;51.920;4.492;2023-03-03T13:15:26;4.03;;;0.93;;
44143;SDS011;68165;51.920;4.492;2023-03-03T13:18:09;5.07;;;1.20;;
44143;SDS011;68165;51.920;4.492;2023-03-03T13:28:34;3.45;;;1.00;;
44143;SDS011;68165;51.920;4.492;2023-03-03T13:31:21;3.13;;;1.00;;
44143;SDS011;68165;51.920;4.492;2023-03-03T13:33:54;4.20;;;0.85;;
44143;SDS011;68165;51.920;4.492;2023-03-03T13:36:23;3.40;;;1.10;;
44143;SDS011;68165;51.920;4.492;2023-03-03T13:38:52;2.80;;;1.00;;
44143;SDS011;68165;51.920;4.492;2023-03-03T13:41:27;5.75;;;1.42;;
44143;SDS011;68165;51.920;4.492;2023-03-03T13:49:20;3.83;;;1.08;;
44143;SDS011;68165;51.920;4.492;2023-03-03T13:51:59;3.67;;;1.10;;
44143;SDS011;68165;51.920;4.492;2023-03-03T14:06:14;5.75;;;1.30;;
44143;SDS011;68165;51.920;4.492;2023-03-03T14:14:37;6.25;;;1.20;;
44143;SDS011;68165;51.920;4.492;2023-03-03T14:17:31;3.53;;;1.15;;
44143;SDS011;68165;51.920;4.492;2023-03-03T14:20:20;9.55;;;1.67;;
44143;SDS011;68165;51.920;4.492;2023-03-03T14:23:01;5.30;;;1.40;;
44143;SDS011;68165;51.920;4.492;2023-03-03T14:25:50;4.50;;;1.25;;
44143;SDS011;68165;51.920;4.492;2023-03-03T14:28:17;3.60;;;1.20;;
44143;SDS011;68165;51.920;4.492;2023-03-03T14:30:46;3.15;;;0.93;;
44143;SDS011;68165;51.920;4.492;2023-03-03T14:38:17;3.90;;;1.20;;
44143;SDS011;68165;51.920;4.492;2023-03-03T14:40:48;2.97;;;0.93;;
44143;SDS011;68165;51.920;4.492;2023-03-03T14:43:37;3.65;;;1.40;;
44143;SDS011;68165;51.920;4.492;2023-03-03T14:46:31;4.20;;;1.10;;
44143;SDS011;68165;51.920;4.492;2023-03-03T14:49:12;4.82;;;1.10;;
44143;SDS011;68165;51.920;4.492;2023-03-03T14:51:53;4.63;;;1.05;;
44143;SDS011;68165;51.920;4.492;2023-03-03T14:54:45;4.47;;;1.25;;
44143;SDS011;68165;51.920;4.492;2023-03-03T14:57:15;5.88;;;1.10;;
44143;SDS011;68165;51.920;4.492;2023-03-03T15:02:40;4.38;;;1.13;;
44143;SDS011;68165;51.920;4.492;2023-03-03T15:05:11;8.55;;;1.33;;
44143;SDS011;68165;51.920;4.492;2023-03-03T15:07:42;6.22;;;1.40;;
44143;SDS011;68165;51.920;4.492;2023-03-03T15:10:09;5.03;;;1.70;;
44143;SDS011;68165;51.920;4.492;2023-03-03T15:12:38;3.47;;;1.38;;
44143;SDS011;68165;51.920;4.492;2023-03-03T15:20:20;4.55;;;2.00;;
44143;SDS011;68165;51.920;4.492;2023-03-03T15:22:47;4.60;;;1.58;;
44143;SDS011;68165;51.920;4.492;2023-03-03T15:25:33;2.72;;;1.42;;
44143;SDS011;68165;51.920;4.492;2023-03-03T15:39:45;6.97;;;1.73;;
44143;SDS011;68165;51.920;4.492;2023-03-03T16:01:25;3.97;;;1.45;;
44143;SDS011;68165;51.920;4.492;2023-03-03T16:06:44;4.95;;;1.50;;
44143;SDS011;68165;51.920;4.492;2023-03-03T16:11:54;7.15;;;1.60;;
44143;SDS011;68165;51.920;4.492;2023-03-03T16:20:17;5.68;;;1.75;;
44143;SDS011;68165;51.920;4.492;2023-03-03T16:26:14;7.20;;;1.88;;
44143;SDS011;68165;51.920;4.492;2023-03-03T16:28:39;7.93;;;2.10;;
44143;SDS011;68165;51.920;4.492;2023-03-03T16:42:29;6.80;;;2.35;;
44143;SDS011;68165;51.920;4.492;2023-03-03T16:53:29;9.02;;;1.80;;
44143;SDS011;68165;51.920;4.492;2023-03-03T17:04:20;5.00;;;1.50;;
44143;SDS011;68165;51.920;4.492;2023-03-03T17:20:36;9.23;;;3.10;;
44143;SDS011;68165;51.920;4.492;2023-03-03T17:25:52;5.72;;;1.30;;
44143;SDS011;68165;51.920;4.492;2023-03-03T17:42:13;5.80;;;1.30;;
44143;SDS011;68165;51.920;4.492;2023-03-03T17:56:23;5.63;;;1.27;;
44143;SDS011;68165;51.920;4.492;2023-03-03T18:01:34;6.65;;;1.58;;
44143;SDS011;68165;51.920;4.492;2023-03-03T18:04:28;12.32;;;2.05;;
44143;SDS011;68165;51.920;4.492;2023-03-03T18:07:24;8.05;;;1.33;;
44143;SDS011;68165;51.920;4.492;2023-03-03T18:21:43;12.27;;;2.42;;
44143;SDS011;68165;51.920;4.492;2023-03-03T18:24:36;5.75;;;1.52;;
44143;SDS011;68165;51.920;4.492;2023-03-03T18:27:23;6.30;;;1.83;;
44143;SDS011;68165;51.920;4.492;2023-03-03T18:33:06;8.45;;;1.58;;
44143;SDS011;68165;51.920;4.492;2023-03-03T18:35:35;8.27;;;1.98;;
44143;SDS011;68165;51.920;4.492;2023-03-03T18:43:38;11.63;;;1.92;;
44143;SDS011;68165;51.920;4.492;2023-03-03T18:46:04;5.85;;;1.60;;
44143;SDS011;68165;51.920;4.492;2023-03-03T18:48:55;8.50;;;2.08;;
44143;SDS011;68165;51.920;4.492;2023-03-03T18:56:48;11.52;;;1.65;;
44143;SDS011;68165;51.920;4.492;2023-03-03T19:02:18;13.23;;;2.47;;
44143;SDS011;68165;51.920;4.492;2023-03-03T19:07:42;14.55;;;1.80;;
44143;SDS011;68165;51.920;4.492;2023-03-03T19:18:00;16.73;;;2.35;;
44143;SDS011;68165;51.920;4.492;2023-03-03T19:20:35;15.25;;;3.00;;
44143;SDS011;68165;51.920;4.492;2023-03-03T19:23:09;11.40;;;1.55;;
44143;SDS011;68165;51.920;4.492;2023-03-03T19:25:38;16.77;;;2.40;;
44143;SDS011;68165;51.920;4.492;2023-03-03T19:33:16;18.98;;;2.20;;
44143;SDS011;68165;51.920;4.492;2023-03-03T19:58:28;21.63;;;2.17;;
44143;SDS011;68165;51.920;4.492;2023-03-03T20:01:20;19.17;;;2.20;;
44143;SDS011;68165;51.920;4.492;2023-03-03T20:06:58;6.57;;;1.55;;
44143;SDS011;68165;51.920;4.492;2023-03-03T20:22:44;7.43;;;2.17;;
44143;SDS011;68165;51.920;4.492;2023-03-03T20:25:26;11.02;;;1.95;;
44143;SDS011;68165;51.920;4.492;2023-03-03T20:37:16;10.25;;;2.00;;
44143;SDS011;68165;51.920;4.492;2023-03-03T20:39:51;13.20;;;2.75;;
44143;SDS011;68165;51.920;4.492;2023-03-03T20:47:48;12.75;;;2.13;;
44143;SDS011;68165;51.920;4.492;2023-03-03T20:50:30;13.73;;;2.42;;
44143;SDS011;68165;51.920;4.492;2023-03-03T20:58:47;14.77;;;1.95;;
44143;SDS011;68165;51.920;4.492;2023-03-03T21:01:41;12.07;;;2.97;;
44143;SDS011;68165;51.920;4.492;2023-03-03T21:04:18;15.50;;;2.08;;
44143;SDS011;68165;51.920;4.492;2023-03-03T21:06:48;13.27;;;2.30;;
44143;SDS011;68165;51.920;4.492;2023-03-03T21:09:25;19.48;;;3.05;;
44143;SDS011;68165;51.920;4.492;2023-03-03T21:11:51;13.63;;;2.45;;
44143;SDS011;68165;51.920;4.492;2023-03-03T21:14:18;19.55;;;2.88;;
44143;SDS011;68165;51.920;4.492;2023-03-03T21:21:54;20.48;;;2.17;;
44143;SDS011;68165;51.920;4.492;2023-03-03T21:24:21;21.08;;;3.03;;
44143;SDS011;68165;51.920;4.492;2023-03-03T21:26:53;14.38;;;2.63;;
44143;SDS011;68165;51.920;4.492;2023-03-03T21:29:25;10.75;;;2.50;;
44143;SDS011;68165;51.920;4.492;2023-03-03T21:37:00;15.70;;;3.15;;
44143;SDS011;68165;51.920;4.492;2023-03-03T21:44:37;13.48;;;2.38;;
44143;SDS011;68165;51.920;4.492;2023-03-03T21:47:06;10.38;;;2.08;;
44143;SDS011;68165;51.920;4.492;2023-03-03T21:49:33;9.90;;;2.58;;
44143;SDS011;68165;51.920;4.492;2023-03-03T21:51:59;23.48;;;3.25;;
44143;SDS011;68165;51.920;4.492;2023-03-03T21:54:26;17.92;;;2.53;;
44143;SDS011;68165;51.920;4.492;2023-03-03T21:56:52;11.32;;;2.50;;
44143;SDS011;68165;51.920;4.492;2023-03-03T21:59:17;15.73;;;2.70;;
44143;SDS011;68165;51.920;4.492;2023-03-03T22:01:43;12.27;;;2.90;;
44143;SDS011;68165;51.920;4.492;2023-03-03T22:04:09;11.90;;;2.03;;
44143;SDS011;68165;51.920;4.492;2023-03-03T22:06:34;11.93;;;2.45;;
44143;SDS011;68165;51.920;4.492;2023-03-03T22:09:01;12.55;;;2.10;;
44143;SDS011;68165;51.920;4.492;2023-03-03T22:11:27;13.02;;;2.35;;
44143;SDS011;68165;51.920;4.492;2023-03-03T22:13:53;18.20;;;3.03;;
44143;SDS011;68165;51.920;4.492;2023-03-03T22:16:18;20.13;;;2.63;;
44143;SDS011;68165;51.920;4.492;2023-03-03T22:18:43;17.15;;;2.80;;
44143;SDS011;68165;51.920;4.492;2023-03-03T22:21:09;14.02;;;2.15;;
44143;SDS011;68165;51.920;4.492;2023-03-03T22:23:35;10.35;;;2.30;;
44143;SDS011;68165;51.920;4.492;2023-03-03T22:26:01;16.25;;;1.95;;
44143;SDS011;68165;51.920;4.492;2023-03-03T22:28:26;19.17;;;2.50;;
44143;SDS011;68165;51.920;4.492;2023-03-03T22:30:53;8.40;;;2.15;;
44143;SDS011;68165;51.920;4.492;2023-03-03T22:33:19;14.63;;;1.95;;
44143;SDS011;68165;51.920;4.492;2023-03-03T22:35:45;17.95;;;2.97;;
44143;SDS011;68165;51.920;4.492;2023-03-03T22:38:11;17.58;;;2.22;;
44143;SDS011;68165;51.920;4.492;2023-03-03T22:40:36;17.20;;;2.63;;
44143;SDS011;68165;51.920;4.492;2023-03-03T22:43:01;10.50;;;2.00;;
44143;SDS011;68165;51.920;4.492;2023-03-03T22:45:27;15.73;;;2.53;;
44143;SDS011;68165;51.920;4.492;2023-03-03T22:47:52;5.95;;;1.90;;
44143;SDS011;68165;51.920;4.492;2023-03-03T22:50:18;13.50;;;3.03;;
44143;SDS011;68165;51.920;4.492;2023-03-03T22:52:44;13.88;;;2.75;;
44143;SDS011;68165;51.920;4.492;2023-03-03T22:55:10;9.93;;;2.70;;